Barrow, AK

7:36 AM AKDT on July 24, 2014 (GMT -0800)
Nuiqsut (PAQT) Elev 39 ft | 70.21 °N, 150.99 °W | Change Station

Current weather conditions updated 43 minutes ago

Overcast
Overcast
42 °F
Feels Like 35 °F
N
13
Wind Variable Wind from WSW

Today is forecast to be Much Cooler than yesterday. Rain and snow.

Today
High -- | Low -- °F
--% Chance of Precip.
Yesterday
High -- | Low -- °F
Precip. -- in
2:42 AM 1:38 AM
Waning Crescent, 5% visible
Pressure 29.65 in
Visibility 10.0 miles
Clouds Few 1300 ft
Mostly Cloudy 3900 ft
Overcast 5500 ft
Windchill 35 °F
Dew Point 40 °F
Humidity 92%
Rainfall 0.06 in
Snow Depth Not available.
UV 0 out of 12
Pollen Not available.
Air Quality Not available.
Flu Activity Not available.
METAR PAQT 241453Z AUTO 24011KT 10SM FEW013 BKN039 OVC055 06/04 A2964 RMK SLP038 60001 T00560044 53001 TSNO $ VIA AUTODIAL

More Conditions Fewer Conditions

Pressure 29.65 in
Visibility 10.0 miles
Clouds Few 1300 ft
Mostly Cloudy 3900 ft
Overcast 5500 ft
Windchill 35 °F
Dew Point 40 °F
Humidity 92%
Rainfall 0.06 in
Snow Depth Not available.
UV 0 out of 12
Pollen Not available.
Air Quality Not available.
Flu Activity Not available.
METAR PAQT 241453Z AUTO 24011KT 10SM FEW013 BKN039 OVC055 06/04 A2964 RMK SLP038 60001 T00560044 53001 TSNO $ VIA AUTODIAL

More Conditions Fewer Conditions

10-Day Weather Forecast

Almanac

Astronomy

Jul. 24, 2014 Rise Set
Actual Time 2:42 AM AKDT 1:38 AM AKDT
Civil Twilight Sun does not rise Sun does not rise
Nautical Twilight Sun does not rise Sun does not rise
Astronomical Twilight Sun does not rise Sun does not rise
Moon 1:32 AM AKDT 11:00 PM AKDT
Length of Visible Light 24h 00m
Length of Day
22h 55m
Tomorrow will be 0m 0s shorter.
Waning Crescent, 5% of the Moon is Illuminated
Today
Waning Crescent
Jul 26
New
Aug 3
First Quarter
Aug 10
Full
Aug 17
Last Quarter

Today's Extremes

State Highs State Lows

Community

WunderPhotos

Upload Photos

1,737,042 photos uploaded!

Nearby

Snow Depth

Station Depth Elevation
Atigun Pass 0 in 4800 ft
Coldfoot 1 in 1040 ft
Gobblers Knob 0 in 2030 ft
Fort Yukon 4 in 430 ft
Eagle Summit 1 in 3650 ft

Earthquake Activity

City Distance Mag. Time & Date
No recent earthquake activity has been reported nearby.
Minimum magnitude displayed is 2.5.

Coastal Water Temperatures

Place Temperature
No Stations Reporting

Nearby Weather Stations

Station Location Temp. Windchill Dew Point Humidity Wind Precip. Elev Updated Type
HADS JUDY CREEK NEAR NUIQSUT 17W , Barrow, AK 42 °F 42 °F - - North  at  - 0.00 in / hr 42 ft 6:00 AM AKDT MADIS

Show More Stations Show Fewer Stations